Time;durP1;ratioP1;P1;durP2;ratioP2;P2;SDS_P1;SDS_P2;PMS_P1;PMS_P2;Temp;Humidity;BMP_temperature;BMP_pressure;BME280_temperature;BME280_humidity;BME280_pressure;Samples;Min_cycle;Max_cycle;Signal;HPM_P1;HPM_P2
2021/12/20 00:01:43;;;;;;;16.97;10.37;;;;;;;;;;5014271;28;20244;-59
2021/12/20 00:04:09;;;;;;;15.57;9.60;;;;;;;;;;5007563;28;20228;-59
2021/12/20 00:06:35;;;;;;;11.70;9.50;;;;;;;;;;5006076;28;20235;-59
2021/12/20 00:09:01;;;;;;;15.13;10.07;;;;;;;;;;5012444;28;20260;-58
2021/12/20 00:11:27;;;;;;;13.60;8.90;;;;;;;;;;5003707;28;20236;-59
2021/12/20 00:13:53;;;;;;;12.20;9.33;;;;;;;;;;4998576;28;21376;-59
2021/12/20 00:16:18;;;;;;;10.47;8.67;;;;;;;;;;5010764;28;20233;-59
2021/12/20 00:18:44;;;;;;;13.03;8.33;;;;;;;;;;5007800;28;20245;-59
2021/12/20 00:21:11;;;;;;;12.20;8.20;;;;;;;;;;5001398;28;20252;-59
2021/12/20 00:23:37;;;;;;;12.17;8.77;;;;;;;;;;5000674;28;20236;-59
2021/12/20 00:26:03;;;;;;;14.63;7.40;;;;;;;;;;4995083;28;20619;-59
2021/12/20 00:28:29;;;;;;;14.27;8.00;;;;;;;;;;5005686;28;20240;-59
2021/12/20 00:30:55;;;;;;;13.00;7.17;;;;;;;;;;5007251;28;21457;-59
2021/12/20 00:33:21;;;;;;;10.93;7.10;;;;;;;;;;5003868;28;20773;-59
2021/12/20 00:35:47;;;;;;;9.43;6.73;;;;;;;;;;4998278;28;20237;-59
2021/12/20 00:40:58;;;;;;;14.20;6.53;;;;;;;;;;5000619;28;20331;-59
2021/12/20 00:43:24;;;;;;;10.50;7.10;;;;;;;;;;5003584;28;20231;-58
2021/12/20 00:45:50;;;;;;;11.20;6.93;;;;;;;;;;5005188;28;20285;-59
2021/12/20 00:48:16;;;;;;;8.13;6.33;;;;;;;;;;4999141;28;20275;-59
2021/12/20 00:50:42;;;;;;;10.30;6.93;;;;;;;;;;4994237;28;20244;-59
2021/12/20 00:53:09;;;;;;;11.53;7.23;;;;;;;;;;4995375;28;20285;-59
2021/12/20 00:55:35;;;;;;;11.90;6.23;;;;;;;;;;4995221;28;20296;-58
2021/12/20 00:58:01;;;;;;;10.27;6.50;;;;;;;;;;4990840;28;22346;-59
2021/12/20 01:00:28;;;;;;;8.10;6.47;;;;;;;;;;5000708;28;20239;-59
2021/12/20 01:02:54;;;;;;;10.10;6.63;;;;;;;;;;4992052;28;20598;-59
2021/12/20 01:05:20;;;;;;;9.93;5.97;;;;;;;;;;4995572;28;20369;-59
2021/12/20 01:07:47;;;;;;;11.03;6.47;;;;;;;;;;4999696;28;20238;-59
2021/12/20 01:10:12;;;;;;;12.87;6.20;;;;;;;;;;5003451;28;21002;-59
2021/12/20 01:12:48;;;;;;;10.43;5.77;;;;;;;;;;4993868;28;20332;-59
2021/12/20 01:15:18;;;;;;;12.30;6.23;;;;;;;;;;5006047;28;20228;-59
2021/12/20 01:17:44;;;;;;;11.37;6.03;;;;;;;;;;4999240;28;20697;-58
2021/12/20 01:20:10;;;;;;;8.90;5.77;;;;;;;;;;5012523;28;20251;-59
2021/12/20 01:22:36;;;;;;;10.53;5.80;;;;;;;;;;5009837;28;20247;-59
2021/12/20 01:25:02;;;;;;;6.47;5.13;;;;;;;;;;5007551;28;20227;-58
2021/12/20 01:27:28;;;;;;;7.33;5.47;;;;;;;;;;5003668;28;20356;-59
2021/12/20 01:29:54;;;;;;;12.07;5.40;;;;;;;;;;5012663;28;20236;-59
2021/12/20 01:32:21;;;;;;;8.40;6.07;;;;;;;;;;5014269;28;20330;-59
2021/12/20 01:34:47;;;;;;;8.13;5.93;;;;;;;;;;5014516;28;20227;-59
2021/12/20 01:37:13;;;;;;;10.10;5.67;;;;;;;;;;5017800;28;20239;-59
2021/12/20 01:39:39;;;;;;;7.83;4.97;;;;;;;;;;5014661;28;20223;-59
2021/12/20 01:42:05;;;;;;;10.10;5.47;;;;;;;;;;5012767;28;20568;-59
2021/12/20 01:44:31;;;;;;;10.07;5.47;;;;;;;;;;5014153;28;21245;-59
2021/12/20 01:47:00;;;;;;;7.67;5.87;;;;;;;;;;5007164;28;20226;-59
2021/12/20 01:49:26;;;;;;;9.03;5.30;;;;;;;;;;4994509;28;21735;-59
2021/12/20 01:54:24;;;;;;;8.60;5.40;;;;;;;;;;5008799;28;20856;-59
2021/12/20 01:56:51;;;;;;;10.03;6.07;;;;;;;;;;5010044;28;20323;-58
2021/12/20 01:59:17;;;;;;;8.67;5.87;;;;;;;;;;5003461;28;20737;-59
2021/12/20 02:01:45;;;;;;;11.93;6.87;;;;;;;;;;5005317;28;20367;-58
2021/12/20 02:04:11;;;;;;;10.40;6.23;;;;;;;;;;5002581;28;20271;-59
2021/12/20 02:06:39;;;;;;;14.23;6.73;;;;;;;;;;5005868;28;20312;-59
2021/12/20 02:09:06;;;;;;;9.77;6.90;;;;;;;;;;5009196;28;20224;-59
2021/12/20 02:11:32;;;;;;;11.37;6.93;;;;;;;;;;5009412;28;20223;-59
2021/12/20 02:13:58;;;;;;;11.17;6.53;;;;;;;;;;5001020;28;20236;-59
2021/12/20 02:16:24;;;;;;;9.80;5.73;;;;;;;;;;4997301;28;20624;-59
2021/12/20 02:18:50;;;;;;;10.90;5.93;;;;;;;;;;5005615;28;20398;-58
2021/12/20 02:21:16;;;;;;;10.13;5.87;;;;;;;;;;5009803;28;20231;-59
2021/12/20 02:23:43;;;;;;;8.80;5.30;;;;;;;;;;5003967;28;20306;-58
2021/12/20 02:26:12;;;;;;;10.60;5.67;;;;;;;;;;5002008;28;20243;-58
2021/12/20 02:28:43;;;;;;;8.00;5.30;;;;;;;;;;5001085;28;20329;-59
2021/12/20 02:38:58;;;;;;;7.73;5.10;;;;;;;;;;5008667;28;20911;-59
2021/12/20 02:41:29;;;;;;;10.00;5.07;;;;;;;;;;5009963;28;20228;-58
2021/12/20 02:43:57;;;;;;;9.53;4.97;;;;;;;;;;5004132;28;20363;-58
2021/12/20 02:49:01;;;;;;;10.70;4.80;;;;;;;;;;5008775;28;20240;-58
2021/12/20 02:51:27;;;;;;;9.13;4.80;;;;;;;;;;5014830;28;20289;-59
2021/12/20 02:53:54;;;;;;;7.90;4.60;;;;;;;;;;5008865;28;20228;-58
2021/12/20 02:56:20;;;;;;;11.80;4.60;;;;;;;;;;5008242;28;20228;-59
2021/12/20 02:58:46;;;;;;;8.67;4.43;;;;;;;;;;5001295;28;20239;-59
2021/12/20 03:01:12;;;;;;;6.87;4.73;;;;;;;;;;5011627;28;20254;-58
2021/12/20 03:03:38;;;;;;;11.40;4.80;;;;;;;;;;4998120;28;20220;-59
2021/12/20 03:06:14;;;;;;;9.70;4.60;;;;;;;;;;5002793;28;20262;-59
2021/12/20 03:08:42;;;;;;;16.73;4.93;;;;;;;;;;4999643;28;20311;-59
2021/12/20 03:11:08;;;;;;;10.07;4.73;;;;;;;;;;4997787;28;20314;-59
2021/12/20 03:13:34;;;;;;;7.23;4.80;;;;;;;;;;5001420;28;20245;-59
2021/12/20 03:16:00;;;;;;;9.30;4.13;;;;;;;;;;5015637;28;20260;-59
2021/12/20 03:18:26;;;;;;;15.20;5.10;;;;;;;;;;5017234;28;20829;-59
2021/12/20 03:20:52;;;;;;;8.60;4.20;;;;;;;;;;5002939;28;20342;-59
2021/12/20 03:23:18;;;;;;;7.03;3.73;;;;;;;;;;4995003;28;20708;-59
2021/12/20 03:25:44;;;;;;;13.77;4.43;;;;;;;;;;5004111;28;20236;-58
2021/12/20 03:28:10;;;;;;;9.73;4.30;;;;;;;;;;5007959;28;20240;-59
2021/12/20 03:30:36;;;;;;;10.47;4.60;;;;;;;;;;5005527;28;20235;-59
2021/12/20 03:33:02;;;;;;;12.23;5.03;;;;;;;;;;4998220;28;20729;-59
2021/12/20 03:35:28;;;;;;;10.93;4.40;;;;;;;;;;5003267;28;20232;-59
2021/12/20 03:37:54;;;;;;;10.40;4.90;;;;;;;;;;5003084;28;22673;-58
2021/12/20 03:40:20;;;;;;;9.53;4.70;;;;;;;;;;4995962;28;20232;-59
2021/12/20 03:42:46;;;;;;;10.80;4.30;;;;;;;;;;5005723;28;20730;-59
2021/12/20 03:45:14;;;;;;;12.57;4.23;;;;;;;;;;4997915;28;20240;-58
2021/12/20 03:47:40;;;;;;;9.43;4.13;;;;;;;;;;4994530;28;20270;-58
2021/12/20 03:50:07;;;;;;;8.47;4.33;;;;;;;;;;5003862;28;20348;-59
2021/12/20 03:52:33;;;;;;;11.20;4.43;;;;;;;;;;5007056;28;20255;-58
2021/12/20 03:54:59;;;;;;;11.77;4.53;;;;;;;;;;4996454;28;20240;-59
2021/12/20 03:57:25;;;;;;;13.00;4.40;;;;;;;;;;4999843;28;20282;-59
2021/12/20 03:59:53;;;;;;;11.60;4.63;;;;;;;;;;4995879;28;20260;-59
2021/12/20 04:02:20;;;;;;;10.13;4.40;;;;;;;;;;4998819;28;20361;-59
2021/12/20 04:04:46;;;;;;;14.83;4.50;;;;;;;;;;4994243;28;20809;-59
2021/12/20 04:07:12;;;;;;;10.23;4.13;;;;;;;;;;5006194;28;20261;-59
2021/12/20 04:09:38;;;;;;;14.03;3.97;;;;;;;;;;5005234;28;22545;-59
2021/12/20 04:12:04;;;;;;;10.83;4.30;;;;;;;;;;4999065;28;20257;-59
2021/12/20 04:14:30;;;;;;;8.70;4.07;;;;;;;;;;5006640;28;20236;-59
2021/12/20 04:16:56;;;;;;;13.23;4.20;;;;;;;;;;4997500;28;20250;-59
2021/12/20 04:19:22;;;;;;;9.87;4.30;;;;;;;;;;5004727;28;20913;-58
2021/12/20 04:21:48;;;;;;;13.07;4.60;;;;;;;;;;4997341;28;20894;-59
2021/12/20 04:24:14;;;;;;;13.00;4.20;;;;;;;;;;5002075;28;20233;-59
2021/12/20 04:26:40;;;;;;;11.50;4.67;;;;;;;;;;4996538;28;20237;-58
2021/12/20 04:29:06;;;;;;;12.67;4.50;;;;;;;;;;5004423;28;20811;-59
2021/12/20 04:31:35;;;;;;;8.50;3.67;;;;;;;;;;4999476;28;20231;-59
2021/12/20 04:34:01;;;;;;;9.47;4.40;;;;;;;;;;4992593;28;20241;-59
2021/12/20 04:36:28;;;;;;;8.40;4.20;;;;;;;;;;5007313;28;20582;-59
2021/12/20 04:38:54;;;;;;;13.10;4.10;;;;;;;;;;5003680;28;20286;-59
2021/12/20 04:41:20;;;;;;;11.37;4.33;;;;;;;;;;5012187;28;20229;-59
2021/12/20 04:43:46;;;;;;;10.43;4.50;;;;;;;;;;5002013;28;20750;-59
2021/12/20 04:46:12;;;;;;;12.63;4.53;;;;;;;;;;5000640;28;20241;-59
2021/12/20 04:48:38;;;;;;;9.23;4.83;;;;;;;;;;4995823;28;20335;-58
2021/12/20 04:51:04;;;;;;;15.77;4.70;;;;;;;;;;5000294;28;20236;-59
2021/12/20 04:53:30;;;;;;;15.37;5.10;;;;;;;;;;5003653;28;20264;-59
2021/12/20 04:55:56;;;;;;;13.57;5.00;;;;;;;;;;5013266;28;20323;-59
2021/12/20 04:58:22;;;;;;;12.93;4.87;;;;;;;;;;5005858;28;20936;-59
2021/12/20 05:00:48;;;;;;;11.37;4.27;;;;;;;;;;5010034;28;20347;-59
2021/12/20 05:03:14;;;;;;;17.70;5.50;;;;;;;;;;4996334;28;21300;-58
2021/12/20 05:05:40;;;;;;;15.10;4.70;;;;;;;;;;4996395;28;20235;-59
2021/12/20 05:08:06;;;;;;;9.97;4.40;;;;;;;;;;4994677;28;20236;-59
2021/12/20 05:10:34;;;;;;;9.53;4.50;;;;;;;;;;5006770;28;20249;-59
2021/12/20 05:13:01;;;;;;;14.80;4.73;;;;;;;;;;5012309;28;20228;-59
2021/12/20 05:15:27;;;;;;;16.37;5.17;;;;;;;;;;5011567;28;20235;-59
2021/12/20 05:17:54;;;;;;;14.73;4.50;;;;;;;;;;5006225;28;20235;-59
2021/12/20 05:20:20;;;;;;;10.83;4.57;;;;;;;;;;5009704;28;20243;-59
2021/12/20 05:22:46;;;;;;;14.93;4.50;;;;;;;;;;5011445;28;20267;-59
2021/12/20 05:25:12;;;;;;;14.73;5.03;;;;;;;;;;5007281;28;20607;-59
2021/12/20 05:27:38;;;;;;;12.40;4.67;;;;;;;;;;5013310;28;20240;-59
2021/12/20 05:30:05;;;;;;;13.40;4.60;;;;;;;;;;5010157;28;20223;-59
2021/12/20 05:32:31;;;;;;;13.43;4.70;;;;;;;;;;5003459;28;20240;-59
2021/12/20 05:34:57;;;;;;;14.47;5.20;;;;;;;;;;4999876;28;20243;-59
2021/12/20 05:37:23;;;;;;;14.30;4.73;;;;;;;;;;5005364;28;20235;-58
2021/12/20 05:39:49;;;;;;;12.03;4.67;;;;;;;;;;5000906;28;20365;-58
2021/12/20 05:42:15;;;;;;;13.60;4.83;;;;;;;;;;5011279;28;20271;-58
2021/12/20 05:44:41;;;;;;;16.20;5.00;;;;;;;;;;5012419;28;20267;-58
2021/12/20 05:47:07;;;;;;;12.63;5.30;;;;;;;;;;4986822;28;20241;-58
2021/12/20 05:49:33;;;;;;;15.87;5.40;;;;;;;;;;4999417;28;20233;-59
2021/12/20 05:51:59;;;;;;;13.20;5.27;;;;;;;;;;4999413;28;20259;-58
2021/12/20 05:54:25;;;;;;;16.30;5.03;;;;;;;;;;5005261;28;21215;-58
2021/12/20 05:56:51;;;;;;;16.70;5.83;;;;;;;;;;5006788;28;20233;-58
2021/12/20 05:59:17;;;;;;;13.07;5.13;;;;;;;;;;5021781;28;20236;-58
2021/12/20 06:01:43;;;;;;;10.80;4.60;;;;;;;;;;5008679;28;20246;-58
2021/12/20 06:04:09;;;;;;;17.20;5.23;;;;;;;;;;5006176;28;20324;-58
2021/12/20 06:06:35;;;;;;;16.73;5.10;;;;;;;;;;5027085;28;20219;-58
2021/12/20 06:09:01;;;;;;;12.43;4.93;;;;;;;;;;5018445;28;20294;-58
2021/12/20 06:11:27;;;;;;;12.07;5.27;;;;;;;;;;5007497;28;20234;-58
2021/12/20 06:13:53;;;;;;;14.37;5.33;;;;;;;;;;5012107;28;21380;-58
2021/12/20 06:16:19;;;;;;;24.23;6.03;;;;;;;;;;5007287;28;21133;-60
2021/12/20 06:18:45;;;;;;;21.37;6.63;;;;;;;;;;5020122;28;20260;-59
2021/12/20 06:21:11;;;;;;;18.90;8.10;;;;;;;;;;5022258;28;20232;-61
2021/12/20 06:23:37;;;;;;;21.03;8.13;;;;;;;;;;5019834;28;20242;-59
2021/12/20 06:26:03;;;;;;;21.47;6.90;;;;;;;;;;5011949;28;20290;-59
2021/12/20 06:28:29;;;;;;;18.27;7.23;;;;;;;;;;5027795;28;20229;-59
2021/12/20 06:30:55;;;;;;;19.80;7.10;;;;;;;;;;5024466;28;20244;-59
2021/12/20 06:33:21;;;;;;;18.37;7.07;;;;;;;;;;5015445;28;21395;-59
2021/12/20 06:35:47;;;;;;;15.40;6.43;;;;;;;;;;5021311;28;20906;-59
2021/12/20 06:38:19;;;;;;;19.53;7.40;;;;;;;;;;5009314;28;20229;-59
2021/12/20 06:40:45;;;;;;;12.47;6.73;;;;;;;;;;5005767;28;20836;-59
2021/12/20 06:43:11;;;;;;;18.17;6.80;;;;;;;;;;5013866;28;20247;-59
2021/12/20 06:45:38;;;;;;;18.50;7.50;;;;;;;;;;5014403;28;20788;-59
2021/12/20 06:48:04;;;;;;;11.23;6.40;;;;;;;;;;5018519;28;20244;-59
2021/12/20 06:50:30;;;;;;;18.80;7.00;;;;;;;;;;5024681;28;20800;-59
2021/12/20 06:52:56;;;;;;;19.87;7.13;;;;;;;;;;5021013;28;20311;-59
2021/12/20 06:55:22;;;;;;;15.37;6.97;;;;;;;;;;5015563;28;20244;-59
2021/12/20 06:57:48;;;;;;;16.03;6.70;;;;;;;;;;5007581;28;20236;-59
2021/12/20 07:00:14;;;;;;;20.17;7.03;;;;;;;;;;5013272;28;20224;-59
2021/12/20 07:02:40;;;;;;;16.50;7.17;;;;;;;;;;5015693;28;20247;-59
2021/12/20 07:05:07;;;;;;;14.00;6.27;;;;;;;;;;5021174;28;20237;-59
2021/12/20 07:07:34;;;;;;;14.63;6.07;;;;;;;;;;5021327;28;20629;-59
2021/12/20 07:10:00;;;;;;;18.33;7.17;;;;;;;;;;5020580;28;20355;-60
2021/12/20 07:12:28;;;;;;;17.87;6.90;;;;;;;;;;5015233;28;20258;-60
2021/12/20 07:14:54;;;;;;;19.37;7.20;;;;;;;;;;5016137;28;20240;-60
2021/12/20 07:17:20;;;;;;;16.90;6.90;;;;;;;;;;5025872;28;20240;-60
2021/12/20 07:19:46;;;;;;;15.27;6.40;;;;;;;;;;5017541;28;20306;-60
2021/12/20 07:22:12;;;;;;;18.10;6.53;;;;;;;;;;5019282;28;20248;-60
2021/12/20 07:24:38;;;;;;;17.63;6.57;;;;;;;;;;5009770;28;20235;-60
2021/12/20 07:27:04;;;;;;;13.47;6.13;;;;;;;;;;5014288;28;20244;-60
2021/12/20 07:29:30;;;;;;;17.47;6.40;;;;;;;;;;5012800;28;20232;-60
2021/12/20 07:31:56;;;;;;;15.17;5.70;;;;;;;;;;5018045;28;20228;-60
2021/12/20 07:34:21;;;;;;;15.10;5.83;;;;;;;;;;5005965;28;20239;-59
2021/12/20 07:36:48;;;;;;;20.87;6.67;;;;;;;;;;5002041;28;20232;-60
2021/12/20 07:39:14;;;;;;;20.20;6.00;;;;;;;;;;5002892;28;20331;-59
2021/12/20 07:41:40;;;;;;;15.50;5.57;;;;;;;;;;5001617;28;20236;-60
2021/12/20 07:44:06;;;;;;;15.53;5.90;;;;;;;;;;5010099;28;20236;-60
2021/12/20 07:46:32;;;;;;;14.97;6.07;;;;;;;;;;5010648;28;20244;-60
2021/12/20 07:48:58;;;;;;;21.60;6.60;;;;;;;;;;5012050;28;20366;-60
2021/12/20 07:51:24;;;;;;;14.57;5.63;;;;;;;;;;5010216;28;20220;-60
2021/12/20 07:53:50;;;;;;;18.27;5.53;;;;;;;;;;5002485;28;20239;-60
2021/12/20 07:56:17;;;;;;;14.27;5.80;;;;;;;;;;5009894;28;20227;-60
2021/12/20 07:58:43;;;;;;;14.40;5.30;;;;;;;;;;5007339;28;20331;-60
2021/12/20 08:01:10;;;;;;;13.90;5.20;;;;;;;;;;4999615;28;20761;-60
2021/12/20 08:03:38;;;;;;;13.10;4.90;;;;;;;;;;5003757;28;20245;-60
2021/12/20 08:06:04;;;;;;;11.83;4.70;;;;;;;;;;5007925;28;20259;-60
2021/12/20 08:08:30;;;;;;;12.07;4.73;;;;;;;;;;5017643;28;20363;-60
2021/12/20 08:10:56;;;;;;;13.93;4.93;;;;;;;;;;5010151;28;20236;-60
2021/12/20 08:13:22;;;;;;;15.13;4.97;;;;;;;;;;5009123;28;20228;-60
2021/12/20 08:15:48;;;;;;;17.77;4.90;;;;;;;;;;5001899;28;21699;-60
2021/12/20 08:18:14;;;;;;;16.67;4.97;;;;;;;;;;5008792;28;20605;-60
2021/12/20 08:20:40;;;;;;;15.23;5.07;;;;;;;;;;5012191;28;20239;-60
2021/12/20 08:23:06;;;;;;;12.10;4.50;;;;;;;;;;5004337;28;22014;-59
2021/12/20 08:25:32;;;;;;;17.20;5.63;;;;;;;;;;5010690;28;20256;-60
2021/12/20 08:27:58;;;;;;;13.57;4.87;;;;;;;;;;5010066;28;20236;-60
2021/12/20 08:30:24;;;;;;;13.57;5.10;;;;;;;;;;5007775;28;20234;-60
2021/12/20 08:32:51;;;;;;;15.80;4.90;;;;;;;;;;5005561;28;20236;-60
2021/12/20 08:35:17;;;;;;;13.70;5.43;;;;;;;;;;5008823;28;20660;-60
2021/12/20 08:37:43;;;;;;;15.50;4.70;;;;;;;;;;4999842;28;20464;-59
2021/12/20 08:40:10;;;;;;;15.40;5.00;;;;;;;;;;5013091;28;20232;-59
2021/12/20 08:42:36;;;;;;;15.47;4.73;;;;;;;;;;5008501;28;20331;-59
2021/12/20 08:45:03;;;;;;;11.57;4.70;;;;;;;;;;5015336;28;20267;-59
2021/12/20 08:47:32;;;;;;;14.60;4.93;;;;;;;;;;5012827;28;20267;-60
2021/12/20 08:49:58;;;;;;;16.13;5.57;;;;;;;;;;4998964;28;20232;-59
2021/12/20 08:52:24;;;;;;;19.07;5.23;;;;;;;;;;5012162;28;20411;-59
2021/12/20 08:54:50;;;;;;;15.47;4.50;;;;;;;;;;5009589;28;20255;-59
2021/12/20 08:57:16;;;;;;;17.17;5.50;;;;;;;;;;5009114;28;20228;-59
2021/12/20 08:59:42;;;;;;;18.10;5.07;;;;;;;;;;5013463;28;20234;-59
2021/12/20 09:02:09;;;;;;;15.63;4.60;;;;;;;;;;4996890;28;20251;-59
2021/12/20 09:04:35;;;;;;;15.73;4.83;;;;;;;;;;5009396;28;20803;-59
2021/12/20 09:07:01;;;;;;;16.77;4.37;;;;;;;;;;5015856;28;20608;-59
2021/12/20 09:09:27;;;;;;;15.87;4.90;;;;;;;;;;5013510;28;20239;-59
2021/12/20 09:11:53;;;;;;;16.20;5.23;;;;;;;;;;5001331;28;20398;-60
2021/12/20 09:14:19;;;;;;;17.23;5.80;;;;;;;;;;5016676;28;20403;-60
2021/12/20 09:16:45;;;;;;;16.13;4.73;;;;;;;;;;5013195;28;20252;-60
2021/12/20 09:19:11;;;;;;;13.10;4.90;;;;;;;;;;5013588;28;20244;-61
2021/12/20 09:21:37;;;;;;;13.57;5.17;;;;;;;;;;5005406;28;20240;-61
2021/12/20 09:24:04;;;;;;;19.90;5.77;;;;;;;;;;5003548;28;20225;-61
2021/12/20 09:26:30;;;;;;;14.73;4.87;;;;;;;;;;5009693;28;20232;-60
2021/12/20 09:28:56;;;;;;;17.53;5.07;;;;;;;;;;5006960;28;20855;-60
2021/12/20 09:31:22;;;;;;;17.63;4.97;;;;;;;;;;5013595;28;21612;-60
2021/12/20 09:33:48;;;;;;;13.37;4.17;;;;;;;;;;5008987;28;20311;-60
2021/12/20 09:36:14;;;;;;;18.97;5.63;;;;;;;;;;5010795;28;20311;-60
2021/12/20 09:38:40;;;;;;;17.77;5.50;;;;;;;;;;5013814;28;20608;-60
2021/12/20 09:43:32;;;;;;;15.23;5.10;;;;;;;;;;5018070;28;20224;-60
2021/12/20 09:45:58;;;;;;;20.07;6.00;;;;;;;;;;5014179;28;20232;-60
2021/12/20 09:48:24;;;;;;;19.10;5.87;;;;;;;;;;5006259;28;20876;-61
2021/12/20 09:50:50;;;;;;;19.07;6.57;;;;;;;;;;5017746;28;20853;-61
2021/12/20 09:53:16;;;;;;;15.77;5.43;;;;;;;;;;5004700;28;20232;-60
2021/12/20 09:55:48;;;;;;;14.77;5.57;;;;;;;;;;5014950;28;20870;-60
2021/12/20 09:58:14;;;;;;;20.83;5.97;;;;;;;;;;5015263;28;20227;-60
2021/12/20 10:00:40;;;;;;;18.37;5.23;;;;;;;;;;5007124;28;20263;-60
2021/12/20 10:03:06;;;;;;;17.07;5.70;;;;;;;;;;5000731;28;20311;-60
2021/12/20 10:05:33;;;;;;;18.00;5.20;;;;;;;;;;5022289;28;20236;-60
2021/12/20 10:08:02;;;;;;;18.50;5.07;;;;;;;;;;5019460;28;20744;-60
2021/12/20 10:10:35;;;;;;;16.90;5.33;;;;;;;;;;5022845;28;20597;-60
2021/12/20 10:13:01;;;;;;;16.93;5.80;;;;;;;;;;5017831;28;20239;-60
2021/12/20 10:15:37;;;;;;;17.50;5.23;;;;;;;;;;5020707;28;20252;-60
2021/12/20 10:18:04;;;;;;;20.03;5.73;;;;;;;;;;5012600;28;22051;-60
2021/12/20 10:20:30;;;;;;;17.37;5.47;;;;;;;;;;5016236;28;20232;-60
2021/12/20 10:23:13;;;;;;;20.40;5.30;;;;;;;;;;5012154;28;20243;-60
2021/12/20 10:25:39;;;;;;;13.67;5.50;;;;;;;;;;5016825;28;20235;-61
2021/12/20 10:28:11;;;;;;;18.63;5.17;;;;;;;;;;5014407;28;20236;-60
2021/12/20 10:30:38;;;;;;;17.50;5.57;;;;;;;;;;5014111;28;20293;-61
2021/12/20 10:33:04;;;;;;;18.07;5.70;;;;;;;;;;5014370;28;20236;-60
2021/12/20 10:35:34;;;;;;;18.83;5.17;;;;;;;;;;5016455;28;20239;-60
2021/12/20 10:38:01;;;;;;;15.77;4.77;;;;;;;;;;5016614;28;20244;-60
2021/12/20 10:40:27;;;;;;;14.50;5.37;;;;;;;;;;5016070;28;20243;-60
2021/12/20 10:42:55;;;;;;;19.90;5.30;;;;;;;;;;5020319;28;20244;-60
2021/12/20 10:45:21;;;;;;;13.70;4.70;;;;;;;;;;5016697;28;20236;-60
2021/12/20 10:47:48;;;;;;;15.33;6.00;;;;;;;;;;5020856;28;20745;-60
2021/12/20 10:50:20;;;;;;;18.10;6.47;;;;;;;;;;5013471;28;20229;-64
2021/12/20 10:52:46;;;;;;;22.73;5.30;;;;;;;;;;5003322;28;20241;-61
2021/12/20 10:55:12;;;;;;;11.57;4.80;;;;;;;;;;5005320;28;20242;-61
2021/12/20 10:57:38;;;;;;;19.67;5.27;;;;;;;;;;5005482;28;20238;-61
2021/12/20 11:00:14;;;;;;;17.27;5.03;;;;;;;;;;5024505;28;20250;-61
2021/12/20 11:03:15;;;;;;;15.57;5.00;;;;;;;;;;5016971;28;20748;-61
2021/12/20 11:06:12;;;;;;;14.30;5.27;;;;;;;;;;5013518;28;20235;-61
2021/12/20 11:11:15;;;;;;;14.27;4.53;;;;;;;;;;5003602;28;20315;-61
2021/12/20 11:13:41;;;;;;;16.43;5.13;;;;;;;;;;5010547;28;20227;-61
2021/12/20 11:16:27;;;;;;;15.00;4.60;;;;;;;;;;5025931;28;20272;-61
2021/12/20 11:19:12;;;;;;;15.93;4.80;;;;;;;;;;5017852;28;20323;-61
2021/12/20 11:21:39;;;;;;;14.50;4.80;;;;;;;;;;5004501;28;20228;-60
2021/12/20 11:24:15;;;;;;;11.87;4.40;;;;;;;;;;5016404;28;20256;-59
2021/12/20 11:26:41;;;;;;;15.17;4.60;;;;;;;;;;5018920;28;20223;-59
2021/12/20 11:29:07;;;;;;;11.73;4.40;;;;;;;;;;5015775;28;20232;-59
2021/12/20 11:31:33;;;;;;;13.73;4.87;;;;;;;;;;5022982;28;20702;-59
2021/12/20 11:34:00;;;;;;;11.23;4.30;;;;;;;;;;5025841;28;20239;-61
2021/12/20 11:36:26;;;;;;;11.33;4.70;;;;;;;;;;5023404;28;20762;-61
2021/12/20 11:38:52;;;;;;;14.03;4.60;;;;;;;;;;5020236;28;20945;-61
2021/12/20 11:41:18;;;;;;;12.50;4.33;;;;;;;;;;5018882;28;20424;-61
2021/12/20 11:43:45;;;;;;;13.50;4.90;;;;;;;;;;5024218;28;20254;-61
2021/12/20 11:46:11;;;;;;;11.40;4.13;;;;;;;;;;5025569;28;20235;-61
2021/12/20 11:48:38;;;;;;;10.00;3.97;;;;;;;;;;5028943;28;20239;-61
2021/12/20 11:51:04;;;;;;;10.67;3.83;;;;;;;;;;5027754;28;20236;-61
2021/12/20 11:53:34;;;;;;;9.97;3.63;;;;;;;;;;5024993;28;20293;-61
2021/12/20 11:56:00;;;;;;;6.27;2.83;;;;;;;;;;5025488;28;20788;-61
2021/12/20 11:58:28;;;;;;;10.20;3.50;;;;;;;;;;5016174;28;20292;-61
2021/12/20 12:00:55;;;;;;;9.50;3.33;;;;;;;;;;5018165;28;20276;-61
2021/12/20 12:03:24;;;;;;;11.43;3.70;;;;;;;;;;5021908;28;20233;-61
2021/12/20 12:05:50;;;;;;;7.07;3.53;;;;;;;;;;5008420;28;21220;-61
2021/12/20 12:08:23;;;;;;;11.77;3.63;;;;;;;;;;5011374;28;20306;-60
2021/12/20 12:10:49;;;;;;;6.50;3.00;;;;;;;;;;5012723;28;20621;-61
2021/12/20 12:13:17;;;;;;;7.47;3.37;;;;;;;;;;4999541;28;20239;-61
2021/12/20 12:16:01;;;;;;;11.70;3.30;;;;;;;;;;5014935;28;20312;-61
2021/12/20 12:19:02;;;;;;;13.40;3.50;;;;;;;;;;5012048;28;20267;-60
2021/12/20 12:21:38;;;;;;;10.40;3.83;;;;;;;;;;5011465;28;20255;-61
2021/12/20 12:24:05;;;;;;;8.07;3.20;;;;;;;;;;5013114;28;20232;-60
2021/12/20 12:26:32;;;;;;;10.40;3.33;;;;;;;;;;5021213;28;20319;-60
2021/12/20 12:28:58;;;;;;;6.40;2.97;;;;;;;;;;5013360;28;20235;-61
2021/12/20 12:31:24;;;;;;;6.90;3.10;;;;;;;;;;5013184;28;20238;-61
2021/12/20 12:34:09;;;;;;;9.23;2.80;;;;;;;;;;5022129;28;20236;-60
2021/12/20 12:36:40;;;;;;;6.83;3.20;;;;;;;;;;5015503;28;20254;-61
2021/12/20 12:39:08;;;;;;;7.57;2.90;;;;;;;;;;5011555;28;20286;-61
2021/12/20 12:41:42;;;;;;;8.00;3.20;;;;;;;;;;5014362;28;20239;-61
2021/12/20 12:44:12;;;;;;;8.17;3.20;;;;;;;;;;5018712;28;20231;-60
2021/12/20 12:46:41;;;;;;;5.90;2.73;;;;;;;;;;5006008;28;20253;-60
2021/12/20 12:49:19;;;;;;;6.30;2.73;;;;;;;;;;5013689;28;20238;-60
2021/12/20 12:51:45;;;;;;;8.57;3.17;;;;;;;;;;5013066;28;20240;-60
2021/12/20 12:54:17;;;;;;;5.80;2.73;;;;;;;;;;5011345;28;20249;-60
2021/12/20 12:56:43;;;;;;;6.27;2.53;;;;;;;;;;5010056;28;20230;-60
2021/12/20 12:59:15;;;;;;;7.40;2.70;;;;;;;;;;5010707;28;20244;-61
2021/12/20 13:01:42;;;;;;;7.27;2.70;;;;;;;;;;5000634;28;20293;-60
2021/12/20 13:04:08;;;;;;;10.87;2.80;;;;;;;;;;5012446;28;20220;-60
2021/12/20 13:06:33;;;;;;;11.43;2.57;;;;;;;;;;5016591;28;22477;-60
2021/12/20 13:09:00;;;;;;;5.53;2.40;;;;;;;;;;5021935;28;20681;-60
2021/12/20 13:11:29;;;;;;;5.80;2.53;;;;;;;;;;5012573;28;20332;-60
2021/12/20 13:14:10;;;;;;;4.80;1.90;;;;;;;;;;5021108;28;20236;-61
2021/12/20 13:16:42;;;;;;;5.47;2.53;;;;;;;;;;5015984;28;20231;-60
2021/12/20 13:19:09;;;;;;;7.17;2.50;;;;;;;;;;5007163;28;20294;-60
2021/12/20 13:21:49;;;;;;;5.73;2.30;;;;;;;;;;5011477;28;20256;-61
2021/12/20 13:24:15;;;;;;;6.50;2.20;;;;;;;;;;5010593;28;20231;-60
2021/12/20 13:26:41;;;;;;;5.30;2.10;;;;;;;;;;5002268;28;20224;-60
2021/12/20 13:29:07;;;;;;;5.43;2.17;;;;;;;;;;5010517;28;20232;-61
2021/12/20 13:31:33;;;;;;;4.33;2.30;;;;;;;;;;4993343;28;20228;-60
2021/12/20 13:34:00;;;;;;;4.43;2.10;;;;;;;;;;4996836;28;20277;-59
2021/12/20 13:36:31;;;;;;;4.13;2.20;;;;;;;;;;4998242;28;20237;-61
2021/12/20 13:38:58;;;;;;;4.43;2.17;;;;;;;;;;5007568;28;21828;-61
2021/12/20 13:41:24;;;;;;;6.77;2.37;;;;;;;;;;5015241;28;20298;-61
2021/12/20 13:43:53;;;;;;;4.77;2.43;;;;;;;;;;5020016;28;20264;-61
2021/12/20 13:47:05;;;;;;;5.90;2.40;;;;;;;;;;5014814;28;20233;-61
2021/12/20 13:49:17;;;;;;;3.13;2.00;;;;;;;;;;5011237;28;20938;-60
2021/12/20 13:51:53;;;;;;;3.93;2.17;;;;;;;;;;5010571;28;20236;-60
2021/12/20 13:54:20;;;;;;;5.63;2.33;;;;;;;;;;4994126;28;20228;-60
2021/12/20 13:57:14;;;;;;;6.80;2.67;;;;;;;;;;5006214;28;20258;-64
2021/12/20 13:59:41;;;;;;;5.63;2.83;;;;;;;;;;4987823;28;20662;-65
2021/12/20 14:02:11;;;;;;;8.57;3.07;;;;;;;;;;4999053;28;20241;-58
2021/12/20 14:04:40;;;;;;;5.20;2.97;;;;;;;;;;5000580;28;21312;-65
2021/12/20 14:07:08;;;;;;;6.17;3.00;;;;;;;;;;5006189;28;20259;-59
2021/12/20 14:09:36;;;;;;;7.10;2.47;;;;;;;;;;4991661;28;20349;-65
2021/12/20 14:12:08;;;;;;;10.80;3.17;;;;;;;;;;5001402;28;20295;-60
2021/12/20 14:14:34;;;;;;;7.23;3.30;;;;;;;;;;5007946;28;21435;-58
2021/12/20 14:17:01;;;;;;;5.00;2.50;;;;;;;;;;4993753;28;20236;-60
2021/12/20 14:19:46;;;;;;;8.93;2.97;;;;;;;;;;5001856;28;20283;-63
2021/12/20 14:22:11;;;;;;;4.50;2.73;;;;;;;;;;5014127;28;20240;-65
2021/12/20 14:24:40;;;;;;;9.07;3.13;;;;;;;;;;5002063;28;20909;-61
2021/12/20 14:27:06;;;;;;;7.70;2.50;;;;;;;;;;4998442;28;20375;-65
2021/12/20 14:29:32;;;;;;;7.20;2.30;;;;;;;;;;5003210;28;20990;-58
2021/12/20 14:32:00;;;;;;;4.33;2.53;;;;;;;;;;4999107;28;20233;-63
2021/12/20 14:34:34;;;;;;;6.40;2.23;;;;;;;;;;5009661;28;20243;-60
2021/12/20 14:37:13;;;;;;;4.63;2.20;;;;;;;;;;4998999;28;21167;-59
2021/12/20 14:39:42;;;;;;;5.00;2.70;;;;;;;;;;4996681;28;20748;-59
2021/12/20 14:42:08;;;;;;;4.80;2.60;;;;;;;;;;5004850;28;20475;-65
2021/12/20 14:44:42;;;;;;;5.33;2.83;;;;;;;;;;5003151;28;20224;-60
2021/12/20 14:47:13;;;;;;;6.50;2.60;;;;;;;;;;4994593;28;20224;-60
2021/12/20 14:49:42;;;;;;;5.47;2.60;;;;;;;;;;4997245;28;20212;-63
2021/12/20 14:52:09;;;;;;;6.10;2.60;;;;;;;;;;4999330;28;20282;-62
2021/12/20 14:54:39;;;;;;;7.00;2.53;;;;;;;;;;5000833;28;20685;-60
2021/12/20 14:57:05;;;;;;;7.27;2.53;;;;;;;;;;4993760;28;20241;-60